Time;durP1;ratioP1;P1;durP2;ratioP2;P2;SDS_P1;SDS_P2;PMS_P1;PMS_P2;Temp;Humidity;BMP_temperature;BMP_pressure;BME280_temperature;BME280_humidity;BME280_pressure;Samples;Min_cycle;Max_cycle;Signal;HPM_P1;HPM_P2
2023/01/12 00:01:46;;;;;;;;;8.50;7.75;;;;;3.98;96.37;98504.66;4770778;29;104041;-74
2023/01/12 00:04:14;;;;;;;;;10.00;9.50;;;;;3.97;96.81;98516.34;4777977;29;102290;-73
2023/01/12 00:06:41;;;;;;;;;10.00;9.25;;;;;3.93;96.62;98515.84;4778460;29;105356;-74
2023/01/12 00:09:09;;;;;;;;;12.25;8.00;;;;;3.98;97.27;98518.88;4776308;29;102523;-73
2023/01/12 00:11:37;;;;;;;;;11.75;10.00;;;;;3.98;97.16;98523.41;4773745;29;104013;-74
2023/01/12 00:14:05;;;;;;;;;6.75;5.25;;;;;3.99;97.68;98522.41;4779497;29;102218;-74
2023/01/12 00:16:39;;;;;;;;;9.00;7.50;;;;;4.00;97.86;98513.38;4783574;29;102739;-72
2023/01/12 00:19:17;;;;;;;;;11.25;8.00;;;;;3.99;97.58;98517.06;4782307;29;102692;-74
2023/01/12 00:22:10;;;;;;;;;10.00;7.25;;;;;3.97;98.21;98511.00;4791887;29;103698;-73
2023/01/12 00:24:40;;;;;;;;;11.00;8.00;;;;;4.00;98.16;98524.09;4767252;29;102386;-72
2023/01/12 00:27:10;;;;;;;;;7.50;6.75;;;;;3.99;98.77;98525.91;4780845;29;102189;-72
2023/01/12 00:29:37;;;;;;;;;8.50;7.00;;;;;4.02;98.30;98519.41;4781978;29;102292;-72
2023/01/12 00:32:05;;;;;;;;;10.00;8.00;;;;;3.99;98.40;98515.22;4780397;29;104065;-71
2023/01/12 00:34:33;;;;;;;;;13.25;10.00;;;;;3.95;99.10;98515.69;4787647;29;102271;-72
2023/01/12 00:37:00;;;;;;;;;10.50;9.75;;;;;3.99;98.74;98520.56;4766480;29;102080;-74
2023/01/12 00:39:27;;;;;;;;;15.50;12.00;;;;;3.98;99.53;98520.72;4786720;29;102320;-73
2023/01/12 05:47:28;;;;;;;;;11.50;10.50;;;;;3.57;100.00;98613.25;5012218;27;102323;-72
2023/01/12 05:49:55;;;;;;;;;14.50;13.00;;;;;3.60;100.00;98610.28;5008512;27;102092;-71
2023/01/12 05:52:22;;;;;;;;;16.50;11.75;;;;;3.65;100.00;98609.81;4986879;27;104013;-72
2023/01/12 05:54:49;;;;;;;;;7.50;6.50;;;;;3.70;100.00;98602.97;4981812;27;102222;-71
2023/01/12 05:57:16;;;;;;;;;11.50;7.00;;;;;3.76;100.00;98610.38;4997673;27;102367;-71
2023/01/12 05:59:43;;;;;;;;;10.25;8.75;;;;;3.80;100.00;98610.91;5005216;27;102072;-72
2023/01/12 06:02:12;;;;;;;;;16.50;11.00;;;;;3.84;100.00;98612.25;4980272;27;104291;-72
2023/01/12 06:04:39;;;;;;;;;11.00;9.75;;;;;3.89;100.00;98617.97;4997661;27;104983;-73
2023/01/12 06:07:06;;;;;;;;;13.50;11.50;;;;;3.89;100.00;98620.66;5000534;27;102311;-71
2023/01/12 06:09:34;;;;;;;;;11.50;9.50;;;;;3.84;100.00;98606.91;5002488;27;102368;-71
2023/01/12 06:14:47;;;;;;;;;9.00;7.00;;;;;4.05;100.00;98634.13;4995623;28;102160;-72
2023/01/12 06:17:14;;;;;;;;;8.25;7.00;;;;;4.07;100.00;98634.78;5001012;27;102254;-72
2023/01/12 06:19:43;;;;;;;;;12.00;9.50;;;;;4.09;100.00;98627.47;4994777;27;102328;-72
2023/01/12 06:22:10;;;;;;;;;19.25;17.00;;;;;4.09;100.00;98619.44;4999768;27;103931;-71
2023/01/12 06:24:37;;;;;;;;;23.00;19.50;;;;;4.13;100.00;98628.81;4999326;27;102176;-72
2023/01/12 06:27:04;;;;;;;;;25.00;21.00;;;;;4.15;100.00;98625.97;5002657;27;102216;-72
2023/01/12 06:29:31;;;;;;;;;17.00;15.50;;;;;4.18;100.00;98637.19;4988086;27;102048;-72
2023/01/12 06:31:59;;;;;;;;;14.50;12.00;;;;;4.19;100.00;98627.34;4987120;27;104211;-72
2023/01/12 06:34:26;;;;;;;;;13.75;12.75;;;;;4.21;100.00;98630.69;5001506;27;102209;-72
2023/01/12 06:36:54;;;;;;;;;13.00;12.00;;;;;4.22;100.00;98627.84;4994536;27;102173;-72
2023/01/12 06:39:21;;;;;;;;;21.50;16.75;;;;;4.23;100.00;98634.06;4992419;27;102421;-72
2023/01/12 06:44:34;;;;;;;;;8.50;8.50;;;;;4.27;100.00;98630.91;4993474;27;102029;-72
2023/01/12 06:47:02;;;;;;;;;15.75;10.50;;;;;4.27;100.00;98636.25;5004664;27;102234;-73
2023/01/12 06:49:29;;;;;;;;;10.50;8.00;;;;;4.27;100.00;98633.56;4987962;27;101987;-71
2023/01/12 06:51:56;;;;;;;;;13.25;8.75;;;;;4.29;100.00;98633.38;4987801;27;107636;-71
2023/01/12 06:54:23;;;;;;;;;7.00;6.25;;;;;4.29;100.00;98638.75;4988656;27;102199;-71
2023/01/12 06:56:50;;;;;;;;;13.50;11.50;;;;;4.28;100.00;98637.91;4987876;27;102312;-71
2023/01/12 06:59:17;;;;;;;;;21.25;14.00;;;;;4.29;100.00;98642.25;4979396;27;102193;-71
2023/01/12 07:01:44;;;;;;;;;12.75;11.50;;;;;4.29;100.00;98644.94;4980057;27;103653;-71
2023/01/12 07:04:11;;;;;;;;;20.75;16.25;;;;;4.32;100.00;98644.59;4979351;27;102156;-71
2023/01/12 07:06:38;;;;;;;;;19.25;15.75;;;;;4.31;100.00;98632.25;4973085;27;102112;-72
2023/01/12 07:09:05;;;;;;;;;12.75;12.00;;;;;4.34;100.00;98637.25;4989460;27;102434;-71
2023/01/12 07:11:32;;;;;;;;;18.50;15.50;;;;;4.32;100.00;98638.44;4987875;27;103976;-72
2023/01/12 07:13:59;;;;;;;;;19.00;16.25;;;;;4.29;100.00;98644.94;4996391;27;102044;-72
2023/01/12 07:16:26;;;;;;;;;17.25;13.50;;;;;4.29;100.00;98646.78;4984336;27;101950;-71
2023/01/12 07:18:53;;;;;;;;;14.75;14.25;;;;;4.29;100.00;98654.78;4992999;27;102029;-72
2023/01/12 07:21:21;;;;;;;;;15.50;12.50;;;;;4.29;100.00;98649.44;4970186;27;103956;-72
2023/01/12 07:23:47;;;;;;;;;15.50;13.00;;;;;4.24;100.00;98647.25;4977866;28;102145;-71
2023/01/12 07:26:14;;;;;;;;;18.00;16.00;;;;;4.24;100.00;98655.28;4992026;27;102179;-72
2023/01/12 07:28:41;;;;;;;;;16.25;13.00;;;;;4.17;100.00;98638.19;4978170;27;104009;-70
2023/01/12 07:31:11;;;;;;;;;15.25;10.50;;;;;4.25;100.00;98648.09;4989818;28;103989;-72
2023/01/12 07:33:38;;;;;;;;;9.25;8.00;;;;;4.24;100.00;98655.28;4993385;27;102301;-72
2023/01/12 07:36:05;;;;;;;;;12.25;8.50;;;;;4.22;100.00;98659.97;4980840;27;101948;-72
2023/01/12 07:38:32;;;;;;;;;8.00;7.00;;;;;4.19;100.00;98660.25;4990006;27;102287;-71
2023/01/12 07:41:01;;;;;;;;;10.50;9.00;;;;;4.19;100.00;98654.91;4987723;27;103984;-71
2023/01/12 07:43:29;;;;;;;;;12.25;11.00;;;;;4.10;100.00;98655.06;4977366;27;103082;-72
2023/01/12 07:45:57;;;;;;;;;15.25;12.00;;;;;4.16;100.00;98654.41;4979323;28;102180;-72
2023/01/12 07:48:26;;;;;;;;;13.75;11.75;;;;;4.14;100.00;98656.41;4994985;27;102561;-72
2023/01/12 07:50:53;;;;;;;;;16.50;14.50;;;;;4.10;100.00;98661.22;4993524;27;104026;-72
2023/01/12 07:53:20;;;;;;;;;17.00;13.25;;;;;4.12;100.00;98664.59;4988845;27;102176;-72
2023/01/12 07:55:48;;;;;;;;;15.00;14.00;;;;;4.13;100.00;98655.56;4985336;27;102503;-72
2023/01/12 07:58:15;;;;;;;;;12.75;11.00;;;;;4.15;100.00;98660.75;4976470;28;102347;-72
2023/01/12 08:00:42;;;;;;;;;20.75;15.00;;;;;4.13;100.00;98654.72;4990919;27;103599;-71
2023/01/12 08:03:12;;;;;;;;;11.00;10.00;;;;;4.12;100.00;98655.72;4985102;28;102110;-72
2023/01/12 08:05:40;;;;;;;;;10.75;8.50;;;;;3.97;100.00;98626.03;4982138;27;101997;-72
2023/01/12 08:08:09;;;;;;;;;10.25;7.75;;;;;4.12;100.00;98651.22;4989247;27;102317;-72
2023/01/12 08:10:36;;;;;;;;;13.25;11.50;;;;;4.11;100.00;98662.06;4972384;27;104201;-71
2023/01/12 08:13:04;;;;;;;;;9.50;7.50;;;;;4.15;100.00;98658.06;4983211;27;102450;-71
2023/01/12 08:15:37;;;;;;;;;13.25;12.00;;;;;4.16;100.00;98665.09;4985236;27;102033;-72
2023/01/12 08:18:27;;;;;;;;;10.25;8.50;;;;;4.19;100.00;98670.97;4990037;28;102453;-72
2023/01/12 08:20:58;;;;;;;;;19.75;15.50;;;;;4.19;100.00;98680.84;4978240;27;104325;-72
2023/01/12 08:23:33;;;;;;;;;11.25;9.50;;;;;4.14;100.00;98654.56;4984759;27;102044;-72
2023/01/12 08:26:06;;;;;;;;;15.25;10.75;;;;;4.21;100.00;98662.78;4978972;27;102016;-72
2023/01/12 08:28:38;;;;;;;;;18.00;13.00;;;;;4.25;100.00;98678.38;4979861;28;102931;-72
2023/01/12 08:31:09;;;;;;;;;11.75;7.75;;;;;4.37;100.00;98673.56;4987269;27;104014;-72
2023/01/12 08:33:37;;;;;;;;;22.50;17.75;;;;;4.39;100.00;98672.41;4979172;28;102664;-72
2023/01/12 08:36:05;;;;;;;;;15.00;11.75;;;;;4.52;100.00;98666.63;4981860;27;102025;-72
2023/01/12 08:38:32;;;;;;;;;13.00;11.75;;;;;4.64;100.00;98664.50;4984537;27;102297;-72
2023/01/12 08:44:05;;;;;;;;;15.75;13.00;;;;;4.83;100.00;98669.56;4988032;27;102027;-72
2023/01/12 08:46:51;;;;;;;;;22.00;16.00;;;;;4.95;100.00;98674.44;4983865;27;102547;-72
2023/01/12 08:49:22;;;;;;;;;24.25;18.75;;;;;5.02;100.00;98677.31;4988313;27;102010;-72
2023/01/12 08:51:50;;;;;;;;;28.00;19.00;;;;;5.10;100.00;98663.94;4987918;27;102970;-72
2023/01/12 08:54:18;;;;;;;;;25.75;18.75;;;;;5.14;100.00;98662.59;4987806;27;102587;-72
2023/01/12 08:56:46;;;;;;;;;22.25;18.75;;;;;5.16;100.00;98660.59;4977718;27;102097;-71
2023/01/12 08:59:14;;;;;;;;;22.75;19.50;;;;;5.28;100.00;98663.78;4982440;27;102177;-72
2023/01/12 09:01:42;;;;;;;;;19.00;17.00;;;;;5.34;99.72;98653.25;4985916;28;104228;-72
2023/01/12 09:04:09;;;;;;;;;13.00;10.75;;;;;5.47;99.62;98663.47;4984125;27;102047;-72
2023/01/12 09:06:40;;;;;;;;;12.50;10.25;;;;;5.59;99.59;98661.28;4987464;27;102097;-72
2023/01/12 09:09:10;;;;;;;;;13.25;11.75;;;;;5.67;98.39;98656.75;4985187;27;102256;-73
2023/01/12 09:11:40;;;;;;;;;13.50;13.25;;;;;5.72;96.29;98666.97;4984063;27;103999;-72
2023/01/12 09:14:09;;;;;;;;;12.75;12.25;;;;;5.78;94.96;98660.94;4978615;27;102947;-72
2023/01/12 09:16:36;;;;;;;;;12.00;9.00;;;;;5.82;95.94;98648.88;4989055;27;102241;-72
2023/01/12 09:19:03;;;;;;;;;11.50;11.00;;;;;5.82;94.32;98641.66;4993704;27;102503;-71
2023/01/12 09:21:31;;;;;;;;;16.50;16.00;;;;;5.83;93.55;98647.88;4984316;28;104175;-71
2023/01/12 09:23:58;;;;;;;;;17.50;14.75;;;;;5.86;93.06;98650.19;4988227;27;102245;-71
2023/01/12 09:26:30;;;;;;;;;17.25;15.00;;;;;5.88;93.22;98642.84;4982922;27;102621;-71
2023/01/12 09:29:03;;;;;;;;;13.75;12.25;;;;;5.84;92.92;98650.38;4995644;27;102346;-71
2023/01/12 09:31:31;;;;;;;;;16.25;14.25;;;;;5.78;92.73;98643.00;4990037;27;108579;-71
2023/01/12 09:33:59;;;;;;;;;11.00;8.75;;;;;5.84;93.32;98646.88;4987718;27;102290;-72
2023/01/12 09:36:27;;;;;;;;;16.75;12.00;;;;;5.87;93.32;98648.38;4982035;27;102276;-72
2023/01/12 09:38:55;;;;;;;;;16.25;12.00;;;;;5.87;92.30;98643.03;4983833;28;102430;-72
2023/01/12 09:47:38;;;;;;;;;13.50;11.25;;;;;6.16;92.82;98625.34;4986845;28;102107;-74
2023/01/12 09:50:08;;;;;;;;;19.75;16.00;;;;;6.23;90.81;98626.31;4959749;27;102273;-72
2023/01/12 09:52:59;;;;;;;;;16.50;13.50;;;;;6.33;90.63;98625.28;4988824;27;104201;-72
2023/01/12 09:55:45;;;;;;;;;17.25;13.75;;;;;6.45;89.21;98615.81;4975549;27;102583;-73
2023/01/12 09:58:26;;;;;;;;;14.25;12.50;;;;;6.56;89.09;98618.16;4979483;27;102487;-72
2023/01/12 10:00:56;;;;;;;;;13.25;12.25;;;;;6.66;88.10;98608.03;4990038;27;102304;-71
2023/01/12 10:03:34;;;;;;;;;12.50;11.00;;;;;6.62;88.29;98579.81;4990127;27;104194;-71
2023/01/12 10:06:01;;;;;;;;;15.00;11.50;;;;;6.86;87.22;98609.22;4975358;28;102140;-72
2023/01/12 10:08:50;;;;;;;;;10.00;9.00;;;;;7.00;86.30;98600.41;4986770;27;102229;-71
2023/01/12 10:11:17;;;;;;;;;8.25;7.25;;;;;7.22;89.18;98608.66;4985216;27;102082;-72
2023/01/12 10:14:00;;;;;;;;;9.00;8.25;;;;;7.30;85.38;98606.72;4978033;27;104009;-71
2023/01/12 10:16:59;;;;;;;;;14.00;13.75;;;;;7.39;84.51;98596.75;4980135;27;102303;-72
2023/01/12 10:19:47;;;;;;;;;10.00;10.00;;;;;7.50;83.74;98591.78;4967584;28;102296;-71
2023/01/12 10:22:37;;;;;;;;;9.75;9.75;;;;;7.48;81.85;98599.19;4956961;28;102321;-71
2023/01/12 10:25:28;;;;;;;;;14.25;11.25;;;;;7.59;81.27;98595.25;4971657;27;108480;-72
2023/01/12 10:27:59;;;;;;;;;11.00;11.00;;;;;7.55;80.73;98594.78;4991624;27;102072;-71
2023/01/12 10:30:35;;;;;;;;;12.25;9.50;;;;;7.59;81.19;98595.25;4975790;27;101796;-72
2023/01/12 10:33:28;;;;;;;;;12.25;8.00;;;;;7.61;80.17;98595.88;4982669;27;102395;-71
2023/01/12 10:36:17;;;;;;;;;6.75;6.25;;;;;7.62;80.78;98600.25;4976259;27;108380;-71
2023/01/12 10:38:56;;;;;;;;;10.00;7.75;;;;;7.53;79.80;98591.41;4986581;27;102435;-71
2023/01/12 10:41:25;;;;;;;;;7.50;7.50;;;;;7.41;80.39;98576.72;4976515;27;102125;-71
2023/01/12 10:43:55;;;;;;;;;6.00;4.00;;;;;7.57;81.05;98589.19;4981042;27;105093;-72
2023/01/12 10:46:25;;;;;;;;;4.00;4.00;;;;;7.56;80.07;98591.03;4960994;28;104296;-71
2023/01/12 10:49:29;;;;;;;;;7.75;6.00;;;;;7.65;80.53;98589.13;4988229;27;102920;-72
2023/01/12 10:51:59;;;;;;;;;7.00;3.75;;;;;7.67;80.32;98587.09;4986152;27;102218;-71
2023/01/12 10:54:40;;;;;;;;;3.75;3.50;;;;;7.64;80.18;98576.69;4986245;27;102423;-70
2023/01/12 10:57:22;;;;;;;;;4.25;2.50;;;;;7.75;80.87;98589.69;4975463;27;108897;-71
2023/01/12 10:59:55;;;;;;;;;4.00;3.50;;;;;7.78;79.73;98578.56;4992352;27;102116;-72
2023/01/12 11:02:27;;;;;;;;;3.75;3.00;;;;;7.78;79.82;98575.88;4983037;27;102872;-72
2023/01/12 11:04:54;;;;;;;;;4.00;4.00;;;;;7.65;79.23;98575.69;5000655;27;102283;-71
2023/01/12 11:07:27;;;;;;;;;6.25;6.00;;;;;7.66;78.24;98560.34;4984424;27;105618;-70
2023/01/12 11:10:15;;;;;;;;;7.00;6.00;;;;;7.72;77.91;98562.31;4997507;27;102584;-71
2023/01/12 11:12:59;;;;;;;;;9.00;7.75;;;;;7.58;76.54;98561.28;4976767;27;103497;-71
2023/01/12 11:15:28;;;;;;;;;9.50;7.75;;;;;7.65;76.39;98556.00;4990180;27;102573;-71
2023/01/12 11:18:13;;;;;;;;;6.00;4.00;;;;;7.80;77.47;98556.84;4989572;27;103944;-71
2023/01/12 11:20:49;;;;;;;;;7.50;5.50;;;;;7.84;74.74;98547.38;4969682;27;102252;-71
2023/01/12 11:23:42;;;;;;;;;5.00;5.00;;;;;7.84;74.08;98572.44;4996026;27;102218;-72
2023/01/12 11:26:18;;;;;;;;;3.00;3.00;;;;;7.82;74.25;98558.34;4987278;27;102703;-71
2023/01/12 11:28:54;;;;;;;;;6.00;6.00;;;;;7.79;75.64;98553.31;4977006;28;103972;-71
2023/01/12 11:31:27;;;;;;;;;3.50;3.00;;;;;7.89;74.88;98561.94;4976894;27;102551;-72
2023/01/12 11:34:33;;;;;;;;;4.00;4.00;;;;;8.01;74.53;98552.38;4964970;27;102151;-71
2023/01/12 11:37:13;;;;;;;;;5.00;4.00;;;;;8.11;73.03;98543.19;4951599;28;102581;-71
2023/01/12 11:39:42;;;;;;;;;3.75;3.50;;;;;8.27;73.37;98557.31;4950905;28;108940;-71
2023/01/12 11:45:14;;;;;;;;;8.00;6.00;;;;;8.32;73.51;98554.94;4964425;28;103545;-71
2023/01/12 11:48:17;;;;;;;;;7.00;5.50;;;;;8.50;71.68;98536.50;4965777;28;101911;-71
2023/01/12 11:50:47;;;;;;;;;6.00;4.50;;;;;8.48;71.24;98518.84;4971425;27;110210;-72
2023/01/12 11:53:21;;;;;;;;;3.75;3.75;;;;;8.63;71.84;98530.41;4961331;28;102390;-71
2023/01/12 11:56:00;;;;;;;;;4.75;4.00;;;;;8.65;70.80;98522.97;4966869;27;102364;-72
2023/01/12 11:58:51;;;;;;;;;7.25;7.25;;;;;8.38;70.70;98521.00;4945789;28;102402;-71
2023/01/12 12:01:48;;;;;;;;;5.25;3.00;;;;;8.28;69.81;98515.06;4962655;28;108579;-71
2023/01/12 12:04:20;;;;;;;;;4.75;3.75;;;;;8.32;71.62;98516.38;4968827;28;103285;-71
2023/01/12 12:07:04;;;;;;;;;4.00;3.75;;;;;8.50;69.86;98516.78;4955267;28;102084;-71
2023/01/12 12:09:52;;;;;;;;;3.25;3.00;;;;;8.65;71.34;98514.03;4968899;28;102343;-72
2023/01/12 12:12:32;;;;;;;;;4.00;3.00;;;;;8.55;67.12;98508.97;4970776;27;110076;-72
2023/01/12 12:15:20;;;;;;;;;3.00;2.00;;;;;8.57;68.37;98503.38;4962763;28;101839;-72
2023/01/12 12:18:04;;;;;;;;;3.25;3.25;;;;;8.54;67.91;98504.59;4958550;28;106074;-73
2023/01/12 12:20:50;;;;;;;;;2.75;2.75;;;;;8.65;67.70;98501.41;4958765;28;102377;-73
2023/01/12 12:23:25;;;;;;;;;3.00;3.00;;;;;8.76;67.43;98492.81;4949160;28;108642;-72
2023/01/12 12:26:10;;;;;;;;;2.75;2.75;;;;;8.81;66.49;98493.09;4961749;27;102520;-73
2023/01/12 12:28:46;;;;;;;;;2.25;1.00;;;;;8.88;67.87;98491.28;4966388;27;104151;-73
2023/01/12 12:31:28;;;;;;;;;2.00;2.00;;;;;8.89;66.34;98482.16;4958949;28;102233;-72
2023/01/12 12:34:12;;;;;;;;;1.00;1.00;;;;;8.91;66.69;98485.50;4956136;28;104021;-73
2023/01/12 12:37:09;;;;;;;;;2.75;2.00;;;;;8.92;67.20;98486.31;4962020;28;102070;-73
2023/01/12 12:39:51;;;;;;;;;3.00;2.25;;;;;8.93;66.72;98488.84;4948913;28;101834;-72
2023/01/12 12:45:41;;;;;;;;;1.25;1.25;;;;;8.85;66.63;98478.19;4963292;28;108925;-73
2023/01/12 12:48:20;;;;;;;;;2.00;1.00;;;;;8.82;66.84;98478.59;4955787;28;101976;-73
2023/01/12 12:51:06;;;;;;;;;2.00;1.00;;;;;8.81;67.20;98490.38;4954209;28;103067;-72
2023/01/12 12:53:37;;;;;;;;;1.00;1.00;;;;;8.67;66.70;98485.03;4949051;28;102346;-70
2023/01/12 12:56:13;;;;;;;;;1.50;1.00;;;;;8.78;66.26;98489.94;4955292;27;103986;-71
2023/01/12 12:58:56;;;;;;;;;2.50;2.00;;;;;8.74;66.69;98481.38;4960851;28;102295;-71
2023/01/12 13:01:23;;;;;;;;;5.75;3.00;;;;;8.80;65.63;98491.41;4961868;28;102136;-71
2023/01/12 13:03:51;;;;;;;;;2.75;2.75;;;;;8.81;65.33;98479.59;4970025;28;102244;-71
2023/01/12 13:06:39;;;;;;;;;2.00;2.00;;;;;8.81;64.86;98476.91;4978712;27;103923;-72
2023/01/12 13:09:11;;;;;;;;;2.50;2.00;;;;;8.77;65.21;98483.72;4950670;28;102209;-72
2023/01/12 13:11:57;;;;;;;;;2.00;1.00;;;;;8.85;66.32;98480.88;4975735;28;101868;-71
2023/01/12 13:14:36;;;;;;;;;4.25;3.00;;;;;8.81;65.34;98487.69;4953551;28;102053;-71
2023/01/12 13:17:18;;;;;;;;;3.00;1.00;;;;;8.78;65.11;98479.16;4952174;28;108577;-72
2023/01/12 13:20:01;;;;;;;;;2.25;2.25;;;;;8.74;66.77;98473.28;4967556;27;102489;-72
2023/01/12 13:22:47;;;;;;;;;6.25;5.00;;;;;8.69;65.36;98469.53;4955818;28;102214;-72
2023/01/12 13:25:18;;;;;;;;;7.50;6.50;;;;;8.64;65.15;98467.41;4969000;28;102498;-73
2023/01/12 13:27:55;;;;;;;;;3.00;3.00;;;;;8.68;65.45;98478.63;4967189;28;102960;-72
2023/01/12 13:30:28;;;;;;;;;9.25;7.50;;;;;8.61;66.12;98458.84;4963256;28;102861;-72
2023/01/12 13:33:10;;;;;;;;;8.75;5.00;;;;;8.56;64.84;98466.66;4970636;28;101996;-72
2023/01/12 13:35:39;;;;;;;;;3.50;2.50;;;;;8.47;65.42;98461.41;4973451;27;102079;-73
2023/01/12 13:38:42;;;;;;;;;1.50;1.50;;;;;8.42;66.46;98463.84;4951136;28;104027;-73
2023/01/12 13:41:12;;;;;;;;;2.00;2.00;;;;;8.40;66.60;98459.69;4970037;27;102117;-72
2023/01/12 13:43:41;;;;;;;;;4.25;4.00;;;;;8.34;66.02;98460.44;4940368;28;102062;-72
2023/01/12 13:46:24;;;;;;;;;5.00;3.50;;;;;8.30;66.35;98457.28;4963380;28;102586;-72
2023/01/12 13:48:54;;;;;;;;;7.00;4.00;;;;;8.30;66.92;98453.75;4975222;28;103817;-73
2023/01/12 13:51:27;;;;;;;;;5.00;2.75;;;;;8.25;66.25;98450.75;4955177;28;102081;-73
2023/01/12 13:54:03;;;;;;;;;4.50;4.00;;;;;8.27;67.45;98441.50;4970018;28;102353;-72
2023/01/12 13:56:30;;;;;;;;;6.75;4.50;;;;;8.28;67.28;98453.09;4968971;28;102024;-73
2023/01/12 13:58:59;;;;;;;;;7.00;4.25;;;;;8.30;67.02;98441.13;4969215;28;103969;-74
2023/01/12 14:01:38;;;;;;;;;6.50;4.00;;;;;8.28;67.24;98445.84;4952644;28;102380;-73
2023/01/12 14:04:14;;;;;;;;;3.75;3.50;;;;;8.27;67.78;98433.41;4945963;28;102167;-74
2023/01/12 14:07:10;;;;;;;;;2.00;1.25;;;;;8.30;67.17;98435.75;4968365;28;102379;-73
2023/01/12 14:09:40;;;;;;;;;3.75;2.00;;;;;8.30;67.39;98437.59;4978588;27;108501;-73
2023/01/12 14:12:36;;;;;;;;;5.50;2.00;;;;;8.21;67.17;98436.84;4965472;28;102395;-73
2023/01/12 14:18:16;;;;;;;;;1.00;1.00;;;;;7.96;67.62;98432.84;4962072;28;102581;-74
2023/01/12 14:20:49;;;;;;;;;4.00;3.00;;;;;7.76;68.02;98429.03;4963579;28;103978;-71
2023/01/12 14:23:26;;;;;;;;;8.75;7.00;;;;;7.67;68.55;98422.09;4971739;28;102602;-74
2023/01/12 14:26:16;;;;;;;;;7.50;5.75;;;;;7.61;69.46;98434.44;4966474;28;102505;-71
2023/01/12 14:28:45;;;;;;;;;5.00;3.00;;;;;7.51;69.52;98432.06;4940674;28;106017;-73
2023/01/12 14:31:38;;;;;;;;;2.00;2.00;;;;;7.44;69.67;98436.47;4946847;28;103954;-73
2023/01/12 14:34:19;;;;;;;;;1.50;1.00;;;;;7.35;69.98;98432.22;4970435;27;102311;-73
2023/01/12 14:36:47;;;;;;;;;3.00;2.25;;;;;7.28;70.21;98436.66;4952358;28;102276;-73
2023/01/12 14:39:19;;;;;;;;;3.00;2.00;;;;;7.21;70.98;98435.72;4973364;27;102417;-72
2023/01/12 14:47:38;;;;;;;;;7.00;4.00;;;;;6.86;71.77;98431.88;4965912;27;102059;-73
2023/01/12 14:50:20;;;;;;;;;3.00;2.25;;;;;6.80;72.45;98435.25;4971112;28;102371;-73
2023/01/12 14:52:48;;;;;;;;;1.00;1.00;;;;;6.71;72.91;98430.97;4957645;27;104020;-73
2023/01/12 14:55:18;;;;;;;;;3.00;3.00;;;;;6.64;72.91;98430.88;4967640;28;103065;-73
2023/01/12 14:57:55;;;;;;;;;1.25;1.25;;;;;6.54;73.86;98432.13;4956821;28;102191;-73
2023/01/12 15:00:27;;;;;;;;;3.00;3.00;;;;;6.45;73.96;98428.66;4979607;27;102394;-72
2023/01/12 15:02:56;;;;;;;;;4.25;3.75;;;;;6.35;74.57;98433.44;4976597;27;103948;-72
2023/01/12 15:05:32;;;;;;;;;8.25;4.00;;;;;6.22;74.41;98417.91;4963298;28;110622;-72
2023/01/12 15:08:25;;;;;;;;;6.00;4.00;;;;;6.21;74.87;98424.28;4967818;28;102063;-72
2023/01/12 15:11:05;;;;;;;;;4.00;3.00;;;;;6.15;75.39;98433.09;4969390;27;102307;-71
2023/01/12 15:13:34;;;;;;;;;7.25;5.00;;;;;6.10;75.24;98438.13;4969392;28;108942;-72
2023/01/12 15:27:18;;;;;;;;;12.00;8.00;;;;;5.79;76.66;98453.38;4970371;27;102080;-72
2023/01/12 15:29:46;;;;;;;;;7.75;7.00;;;;;5.72;76.98;98447.00;4966423;27;102294;-71
2023/01/12 15:32:21;;;;;;;;;6.00;6.00;;;;;5.69;76.91;98452.72;4969967;28;102254;-73
2023/01/12 15:34:48;;;;;;;;;7.25;6.00;;;;;5.65;77.66;98449.56;4985285;27;103749;-72
2023/01/12 15:37:18;;;;;;;;;9.25;6.50;;;;;5.58;77.80;98453.97;4982887;27;103386;-72
2023/01/12 15:39:47;;;;;;;;;7.75;7.00;;;;;5.56;77.78;98442.56;4968193;27;102302;-73
2023/01/12 15:42:18;;;;;;;;;8.25;7.00;;;;;5.53;77.94;98445.59;4959210;28;102441;-73
2023/01/12 15:44:48;;;;;;;;;9.25;6.25;;;;;5.49;77.91;98446.13;4983682;27;104290;-72
2023/01/12 15:47:17;;;;;;;;;8.00;7.25;;;;;5.47;78.09;98446.28;4969340;27;102500;-73
2023/01/12 15:49:47;;;;;;;;;8.50;6.75;;;;;5.45;78.04;98450.16;4974532;28;102280;-72
2023/01/12 15:52:23;;;;;;;;;9.25;6.25;;;;;5.40;78.46;98446.13;4960742;28;102390;-72
2023/01/12 15:54:50;;;;;;;;;7.00;4.25;;;;;5.35;78.38;98444.97;4957969;28;102779;-72
2023/01/12 15:57:17;;;;;;;;;9.00;7.25;;;;;5.31;78.67;98449.81;4948534;27;102047;-73
2023/01/12 15:59:44;;;;;;;;;9.50;8.00;;;;;5.31;78.62;98444.47;4983328;28;102114;-73
2023/01/12 16:02:26;;;;;;;;;9.00;7.50;;;;;5.23;78.56;98430.25;4977978;27;102086;-73
2023/01/12 16:04:53;;;;;;;;;6.50;5.75;;;;;5.30;79.17;98441.97;4985487;28;103980;-73
2023/01/12 16:07:20;;;;;;;;;7.75;5.00;;;;;5.26;78.67;98437.97;4969318;27;102259;-72
2023/01/12 16:09:49;;;;;;;;;7.75;6.00;;;;;5.25;78.71;98438.97;4977087;27;102480;-74
2023/01/12 16:12:17;;;;;;;;;9.25;8.00;;;;;5.25;78.96;98431.78;4981912;27;102010;-73
2023/01/12 16:14:44;;;;;;;;;7.00;6.00;;;;;5.24;78.76;98440.81;4961257;28;103993;-73
2023/01/12 16:17:11;;;;;;;;;8.75;8.50;;;;;5.24;78.54;98438.13;4960768;28;102092;-73
2023/01/12 16:19:41;;;;;;;;;6.00;6.00;;;;;5.25;78.47;98441.66;4963208;28;102041;-73
2023/01/12 16:22:26;;;;;;;;;12.25;9.25;;;;;5.26;78.45;98430.78;4953262;28;102144;-73
2023/01/12 16:24:55;;;;;;;;;11.75;7.50;;;;;5.28;78.28;98436.78;4949875;28;104008;-72
2023/01/12 16:27:25;;;;;;;;;8.50;8.50;;;;;5.28;78.27;98444.81;4965977;28;102690;-73
2023/01/12 16:29:52;;;;;;;;;6.25;6.25;;;;;5.26;78.43;98441.50;4968760;27;102513;-73
2023/01/12 16:32:24;;;;;;;;;9.00;7.00;;;;;5.24;78.39;98438.13;4967588;28;102189;-73
2023/01/12 16:34:52;;;;;;;;;7.00;5.50;;;;;5.16;78.86;98430.13;4964897;28;104031;-73
2023/01/12 16:37:21;;;;;;;;;7.50;6.50;;;;;5.11;79.08;98437.00;4966547;27;102292;-73
2023/01/12 16:39:49;;;;;;;;;11.50;10.00;;;;;4.95;79.21;98411.06;4950397;28;104364;-73
2023/01/12 16:42:16;;;;;;;;;11.00;7.75;;;;;5.00;79.46;98424.78;4965785;27;102265;-73
2023/01/12 16:44:42;;;;;;;;;8.25;8.00;;;;;4.98;79.67;98428.63;4962302;28;104277;-72
2023/01/12 16:47:15;;;;;;;;;7.25;7.25;;;;;4.93;79.87;98430.00;4972070;28;102293;-73
2023/01/12 16:49:43;;;;;;;;;14.50;12.00;;;;;4.90;79.78;98418.78;4963936;28;102363;-73
2023/01/12 16:52:14;;;;;;;;;10.50;8.00;;;;;4.89;80.27;98419.78;4974707;28;102155;-73
2023/01/12 16:54:41;;;;;;;;;7.25;7.00;;;;;4.82;80.05;98410.72;4954906;28;104248;-73
2023/01/12 16:57:14;;;;;;;;;9.25;8.00;;;;;4.81;80.41;98404.56;4965828;27;102439;-72
2023/01/12 16:59:41;;;;;;;;;11.75;10.00;;;;;4.80;80.54;98415.44;4962032;28;102353;-72
2023/01/12 17:02:14;;;;;;;;;13.50;12.25;;;;;4.56;80.54;98386.00;4955596;28;101860;-73
2023/01/12 17:04:43;;;;;;;;;9.25;9.00;;;;;4.65;80.86;98390.34;4956580;28;104024;-73
2023/01/12 17:07:11;;;;;;;;;12.25;8.00;;;;;4.63;80.85;98411.09;4959533;28;102369;-72
2023/01/12 17:09:38;;;;;;;;;11.75;7.50;;;;;4.64;80.88;98402.06;4959514;28;102105;-72
2023/01/12 17:12:06;;;;;;;;;12.75;11.00;;;;;4.63;80.82;98403.06;4964227;28;102713;-72
2023/01/12 17:14:34;;;;;;;;;17.75;13.00;;;;;4.40;80.80;98368.94;4963446;28;103922;-72
2023/01/12 17:17:05;;;;;;;;;12.50;9.00;;;;;4.58;81.08;98408.09;4968872;28;102290;-73
2023/01/12 17:19:34;;;;;;;;;12.25;11.50;;;;;4.55;81.59;98392.38;4973145;28;102264;-73
2023/01/12 17:22:01;;;;;;;;;18.25;13.00;;;;;4.37;81.49;98365.75;4957915;28;102069;-73
2023/01/12 17:24:30;;;;;;;;;19.75;13.75;;;;;4.51;81.96;98389.19;4960466;28;108684;-73
2023/01/12 17:26:58;;;;;;;;;17.00;11.00;;;;;4.42;81.81;98366.09;4957021;28;102184;-73
2023/01/12 17:29:26;;;;;;;;;15.75;11.00;;;;;4.54;81.88;98385.34;4954874;27;102076;-73
2023/01/12 17:32:02;;;;;;;;;12.00;10.50;;;;;4.47;82.25;98375.28;4964285;27;102245;-73
2023/01/12 17:34:32;;;;;;;;;11.75;10.00;;;;;4.50;82.15;98388.34;4953014;27;108615;-74
2023/01/12 17:37:06;;;;;;;;;13.25;10.50;;;;;4.49;82.19;98389.38;4969359;28;101998;-73
2023/01/12 17:39:35;;;;;;;;;12.50;10.50;;;;;4.48;82.24;98393.03;4950664;28;102714;-73